createdAt,value
2023-02-22T00:00:27.131Z,30.80
2023-02-22T00:02:56.728Z,32.80
2023-02-22T00:05:23.123Z,30.70
2023-02-22T00:07:49.860Z,34.10
2023-02-22T00:10:18.133Z,33.70
2023-02-22T00:12:44.490Z,30.13
2023-02-22T00:15:11.210Z,34.55
2023-02-22T00:17:37.561Z,34.42
2023-02-22T00:20:04.313Z,34.05
2023-02-22T00:22:30.705Z,35.55
2023-02-22T00:24:57.247Z,38.75
2023-02-22T00:27:25.091Z,36.50
2023-02-22T00:29:51.473Z,32.63
2023-02-22T00:32:17.970Z,31.88
2023-02-22T00:34:44.436Z,36.53
2023-02-22T00:37:11.238Z,34.95
2023-02-22T00:39:37.629Z,33.00
2023-02-22T00:42:04.034Z,33.20
2023-02-22T00:44:31.865Z,35.90
2023-02-22T00:46:58.244Z,34.78
2023-02-22T00:49:24.608Z,30.02
2023-02-22T00:51:51.004Z,37.30
2023-02-22T00:54:17.399Z,36.15
2023-02-22T00:56:43.756Z,35.28
2023-02-22T00:59:10.274Z,32.13
2023-02-22T01:01:38.040Z,37.28
2023-02-22T01:04:05.052Z,40.15
2023-02-22T01:06:31.714Z,35.15
2023-02-22T01:08:58.071Z,35.85
2023-02-22T01:11:24.443Z,39.40
2023-02-22T01:13:51.064Z,34.55
2023-02-22T01:16:17.478Z,36.92
2023-02-22T01:18:45.294Z,38.00
2023-02-22T01:21:11.853Z,38.45
2023-02-22T01:23:38.243Z,38.00
2023-02-22T01:26:05.338Z,35.35
2023-02-22T01:28:31.863Z,39.38
2023-02-22T01:30:58.389Z,34.45
2023-02-22T01:33:24.859Z,39.28
2023-02-22T01:35:52.868Z,41.17
2023-02-22T01:38:19.240Z,37.13
2023-02-22T01:40:48.690Z,39.95
2023-02-22T01:43:19.755Z,38.00
2023-02-22T01:45:59.457Z,40.70
2023-02-22T01:48:45.832Z,45.95
2023-02-22T01:51:17.732Z,37.88
2023-02-22T01:53:50.808Z,42.15
2023-02-22T01:56:18.889Z,47.43
2023-02-22T01:58:48.464Z,44.92
2023-02-22T02:01:16.409Z,43.92
2023-02-22T02:03:44.534Z,46.17
2023-02-22T02:06:14.574Z,38.88
2023-02-22T02:08:48.147Z,45.15
2023-02-22T02:11:14.808Z,37.97
2023-02-22T02:13:41.406Z,43.47
2023-02-22T02:16:07.860Z,39.70
2023-02-22T02:18:34.375Z,43.85
2023-02-22T02:21:26.771Z,43.35
2023-02-22T02:24:20.808Z,40.60
2023-02-22T02:27:11.382Z,39.95
2023-02-22T02:30:08.476Z,43.25
2023-02-22T02:32:52.201Z,46.85
2023-02-22T02:35:26.754Z,38.17
2023-02-22T02:37:57.692Z,41.65
2023-02-22T02:40:32.193Z,39.10
2023-02-22T02:43:05.383Z,52.65
2023-02-22T02:45:38.392Z,38.25
2023-02-22T02:48:11.499Z,36.65
2023-02-22T02:50:44.002Z,44.25
2023-02-22T02:53:11.076Z,36.50
2023-02-22T02:55:38.001Z,37.72
2023-02-22T02:58:05.849Z,42.28
2023-02-22T03:00:35.549Z,44.20
2023-02-22T03:03:17.873Z,47.97
2023-02-22T03:06:01.985Z,54.40
2023-02-22T03:11:06.550Z,57.38
2023-02-22T03:13:40.115Z,40.83
2023-02-22T03:16:15.178Z,39.95
2023-02-22T03:18:50.148Z,37.60
2023-02-22T03:21:24.217Z,41.78
2023-02-22T03:23:59.961Z,51.55
2023-02-22T03:26:31.659Z,51.92
2023-02-22T03:28:59.704Z,45.00
2023-02-22T03:31:30.314Z,61.25
2023-02-22T03:34:02.480Z,51.10
2023-02-22T03:36:32.979Z,44.88
2023-02-22T03:39:01.991Z,49.63
2023-02-22T03:41:31.598Z,39.65
2023-02-22T03:44:04.537Z,37.45
2023-02-22T03:46:32.530Z,39.33
2023-02-22T03:49:04.994Z,50.28
2023-02-22T03:51:31.411Z,56.28
2023-02-22T03:53:57.888Z,37.20
2023-02-22T03:56:30.115Z,40.17
2023-02-22T03:58:56.567Z,39.17
2023-02-22T04:01:22.946Z,43.60
2023-02-22T04:03:49.435Z,47.40
2023-02-22T04:06:17.165Z,60.33
2023-02-22T04:08:43.515Z,46.67
2023-02-22T04:11:10.203Z,44.42
2023-02-22T04:13:36.587Z,52.47
2023-02-22T04:16:03.130Z,46.08
2023-02-22T04:18:29.517Z,38.85
2023-02-22T04:20:55.892Z,38.55
2023-02-22T04:23:23.593Z,35.63
2023-02-22T04:25:50.003Z,44.88
2023-02-22T04:28:16.436Z,40.83
2023-02-22T04:30:42.845Z,39.28
2023-02-22T04:33:09.635Z,42.13
2023-02-22T04:35:36.010Z,47.40
2023-02-22T04:38:02.354Z,47.17
2023-02-22T04:40:30.476Z,40.25
2023-02-22T04:42:56.856Z,45.70
2023-02-22T04:45:23.650Z,40.17
2023-02-22T04:47:50.182Z,36.67
2023-02-22T04:50:16.545Z,41.95
2023-02-22T04:52:42.926Z,36.42
2023-02-22T04:55:09.516Z,34.60
2023-02-22T04:57:37.237Z,31.25
2023-02-22T05:00:04.823Z,35.88
2023-02-22T05:02:31.693Z,41.00
2023-02-22T05:04:58.122Z,28.65
2023-02-22T05:07:24.555Z,32.53
2023-02-22T05:09:50.961Z,29.65
2023-02-22T05:12:17.337Z,33.80
2023-02-22T05:14:45.006Z,37.97
2023-02-22T05:17:11.597Z,41.97
2023-02-22T05:19:38.076Z,32.53
2023-02-22T05:22:04.463Z,39.78
2023-02-22T05:24:31.049Z,32.67
2023-02-22T05:26:57.518Z,29.45
2023-02-22T05:29:23.921Z,37.88
2023-02-22T05:31:51.784Z,37.05
2023-02-22T05:34:18.206Z,33.97
2023-02-22T05:36:44.961Z,40.45
2023-02-22T05:39:11.365Z,42.53
2023-02-22T05:41:37.930Z,38.20
2023-02-22T05:44:04.925Z,36.40
2023-02-22T05:46:31.327Z,29.27
2023-02-22T05:48:59.047Z,30.85
2023-02-22T05:51:25.459Z,35.55
2023-02-22T05:53:51.905Z,35.92
2023-02-22T05:56:21.507Z,36.58
2023-02-22T05:58:47.883Z,38.55
2023-02-22T06:01:14.275Z,31.77
2023-02-22T06:03:40.640Z,38.60
2023-02-22T06:06:08.496Z,31.75
2023-02-22T06:08:34.864Z,42.75
2023-02-22T06:11:01.218Z,36.35
2023-02-22T06:13:27.573Z,25.98
2023-02-22T06:15:53.978Z,33.55
2023-02-22T06:18:20.362Z,26.95
2023-02-22T06:20:46.959Z,37.08
2023-02-22T06:23:14.882Z,33.53
2023-02-22T06:25:41.238Z,35.70
2023-02-22T06:28:07.644Z,30.23
2023-02-22T06:30:34.104Z,35.53
2023-02-22T06:33:00.602Z,29.30
2023-02-22T06:35:27.003Z,35.13
2023-02-22T06:37:53.500Z,27.27
2023-02-22T06:40:21.231Z,27.38
2023-02-22T06:42:48.800Z,36.22
2023-02-22T06:45:17.507Z,37.30
2023-02-22T06:47:43.876Z,34.33
2023-02-22T06:50:19.464Z,31.55
2023-02-22T06:52:45.845Z,25.42
2023-02-22T06:55:12.219Z,33.33
2023-02-22T06:57:39.915Z,28.20
2023-02-22T07:00:07.658Z,26.08
2023-02-22T07:02:34.023Z,29.80
2023-02-22T07:05:00.482Z,34.22
2023-02-22T07:07:26.909Z,27.70
2023-02-22T07:09:53.251Z,36.58
2023-02-22T07:12:19.696Z,31.27
2023-02-22T07:14:47.368Z,30.98
2023-02-22T07:17:13.736Z,29.02
2023-02-22T07:19:40.309Z,31.25
2023-02-22T07:22:06.746Z,25.63
2023-02-22T07:24:33.108Z,25.73
2023-02-22T07:27:00.906Z,24.25
2023-02-22T07:29:27.439Z,22.58
2023-02-22T07:31:55.900Z,24.88
2023-02-22T07:34:22.608Z,28.08
2023-02-22T07:36:48.987Z,27.20
2023-02-22T07:39:15.343Z,28.98
2023-02-22T07:41:41.704Z,24.75
2023-02-22T07:44:08.095Z,24.70
2023-02-22T07:46:34.462Z,28.08
2023-02-22T07:49:02.192Z,28.60
2023-02-22T07:51:28.578Z,26.75
2023-02-22T07:53:54.918Z,26.17
2023-02-22T07:56:21.483Z,27.52
2023-02-22T07:58:47.972Z,20.95
2023-02-22T08:01:14.425Z,25.77
2023-02-22T08:03:40.829Z,22.80
2023-02-22T08:06:08.605Z,22.83
2023-02-22T08:08:34.977Z,20.70
2023-02-22T08:11:01.665Z,22.63
2023-02-22T08:13:28.160Z,20.40
2023-02-22T08:15:54.864Z,27.08
2023-02-22T08:18:22.821Z,26.33
2023-02-22T08:20:50.756Z,24.73
2023-02-22T08:23:20.565Z,20.83
2023-02-22T08:25:46.976Z,23.33
2023-02-22T08:28:15.748Z,24.10
2023-02-22T08:30:42.909Z,24.05
2023-02-22T08:33:10.139Z,23.40
2023-02-22T08:35:36.821Z,22.83
2023-02-22T08:38:05.638Z,24.65
2023-02-22T08:40:35.602Z,22.02
2023-02-22T08:43:02.934Z,19.92
2023-02-22T08:45:29.513Z,25.55
2023-02-22T08:47:55.990Z,22.83
2023-02-22T08:50:24.640Z,18.95
2023-02-22T08:52:51.851Z,19.83
2023-02-22T08:55:20.238Z,24.80
2023-02-22T08:57:48.005Z,21.98
2023-02-22T09:00:15.665Z,22.08
2023-02-22T09:02:42.065Z,22.30
2023-02-22T09:05:08.412Z,23.35
2023-02-22T09:07:34.754Z,22.75
2023-02-22T09:10:01.318Z,21.45
2023-02-22T09:12:27.850Z,23.55
2023-02-22T09:14:55.518Z,23.58
2023-02-22T09:17:21.899Z,23.30
2023-02-22T09:19:48.253Z,22.83
2023-02-22T09:22:14.642Z,20.90
2023-02-22T09:24:41.073Z,22.05
2023-02-22T09:27:07.434Z,23.88
2023-02-22T09:29:33.841Z,26.15
2023-02-22T09:32:01.772Z,24.02
2023-02-22T09:34:28.243Z,19.52
2023-02-22T09:36:55.473Z,25.20
2023-02-22T09:39:22.089Z,21.52
2023-02-22T09:41:54.274Z,25.95
2023-02-22T09:44:28.569Z,24.85
2023-02-22T09:46:54.959Z,22.83
2023-02-22T09:49:27.586Z,18.30
2023-02-22T09:51:58.313Z,25.02
2023-02-22T09:54:31.553Z,25.50
2023-02-22T09:57:04.118Z,22.13
2023-02-22T09:59:35.285Z,20.10
2023-02-22T10:02:14.322Z,18.85
2023-02-22T10:04:48.654Z,22.48
2023-02-22T10:07:20.287Z,22.33
2023-02-22T10:09:49.868Z,23.52
2023-02-22T10:12:26.166Z,23.67
2023-02-22T10:15:16.470Z,22.48
2023-02-22T10:17:53.710Z,26.40
2023-02-22T10:20:38.810Z,21.40
2023-02-22T10:23:13.950Z,16.05
2023-02-22T10:25:43.954Z,23.17
2023-02-22T10:28:16.033Z,22.73
2023-02-22T10:30:46.021Z,24.30
2023-02-22T10:33:17.116Z,17.40
2023-02-22T10:35:47.089Z,17.95
2023-02-22T10:38:17.438Z,24.92
2023-02-22T10:40:48.319Z,21.00
2023-02-22T10:43:14.853Z,16.65
2023-02-22T10:45:41.540Z,14.23
2023-02-22T10:48:10.841Z,21.55
2023-02-22T10:50:39.987Z,17.88
2023-02-22T10:53:08.841Z,20.05
2023-02-22T10:55:35.582Z,20.55
2023-02-22T10:58:04.203Z,20.83
2023-02-22T11:00:32.906Z,18.30
2023-02-22T11:03:01.202Z,23.80
2023-02-22T11:05:31.487Z,17.98
2023-02-22T11:08:26.144Z,17.13
2023-02-22T11:10:54.554Z,21.88
2023-02-22T11:13:26.341Z,17.58
2023-02-22T11:15:53.258Z,18.27
2023-02-22T11:18:26.419Z,18.60
2023-02-22T11:21:00.670Z,13.95
2023-02-22T11:23:28.905Z,14.77
2023-02-22T11:26:03.042Z,20.75
2023-02-22T11:28:30.618Z,16.52
2023-02-22T11:30:58.885Z,18.65
2023-02-22T11:33:27.047Z,17.75
2023-02-22T11:35:55.154Z,20.20
2023-02-22T11:38:23.685Z,17.15
2023-02-22T11:41:08.168Z,18.15
2023-02-22T11:43:34.968Z,21.35
2023-02-22T11:46:04.368Z,16.70
2023-02-22T11:48:33.415Z,18.23
2023-02-22T11:51:14.467Z,13.48
2023-02-22T11:53:57.289Z,12.13
2023-02-22T11:56:37.805Z,19.63
2023-02-22T11:59:19.308Z,20.08
2023-02-22T12:01:50.768Z,16.25
2023-02-22T12:04:55.461Z,16.08
2023-02-22T12:07:37.006Z,20.50
2023-02-22T12:10:18.009Z,18.42
2023-02-22T12:13:01.322Z,21.55
2023-02-22T12:15:31.675Z,15.32
2023-02-22T12:18:03.907Z,15.35
2023-02-22T12:20:36.462Z,12.57
2023-02-22T12:23:10.134Z,19.38
2023-02-22T12:28:24.378Z,18.95
2023-02-22T12:30:56.462Z,17.52
2023-02-22T12:33:28.118Z,10.50
2023-02-22T12:35:56.672Z,13.93
2023-02-22T12:38:30.450Z,14.65
2023-02-22T12:43:32.441Z,15.40
2023-02-22T12:46:04.509Z,12.57
2023-02-22T12:48:43.385Z,12.95
2023-02-22T12:51:20.823Z,15.68
2023-02-22T12:53:55.163Z,16.27
2023-02-22T12:56:28.346Z,16.00
2023-02-22T12:59:00.920Z,17.95
2023-02-22T13:01:32.776Z,14.68
2023-02-22T13:04:05.769Z,16.65
2023-02-22T13:06:49.325Z,11.60
2023-02-22T13:09:35.441Z,10.90
2023-02-22T13:12:10.437Z,12.40
2023-02-22T13:14:49.618Z,11.07
2023-02-22T13:17:24.356Z,14.95
2023-02-22T13:19:58.150Z,14.45
2023-02-22T13:22:30.317Z,12.52
2023-02-22T13:25:04.190Z,8.70
2023-02-22T13:27:38.110Z,12.48
2023-02-22T13:30:16.515Z,14.82
2023-02-22T13:33:03.916Z,10.63
2023-02-22T13:35:42.628Z,12.02
2023-02-22T13:38:45.597Z,13.35
2023-02-22T13:41:23.618Z,12.00
2023-02-22T13:44:05.991Z,11.35
2023-02-22T13:47:12.594Z,12.75
2023-02-22T13:49:52.184Z,11.43
2023-02-22T13:52:21.494Z,11.82
2023-02-22T13:54:51.311Z,13.40
2023-02-22T13:57:21.103Z,11.10
2023-02-22T13:59:47.506Z,15.45
2023-02-22T14:02:53.383Z,12.77
2023-02-22T14:05:47.375Z,10.52
2023-02-22T14:08:40.177Z,14.82
2023-02-22T14:11:44.019Z,14.95
2023-02-22T14:14:15.852Z,11.02
2023-02-22T14:16:42.572Z,13.60
2023-02-22T14:19:16.498Z,11.75
2023-02-22T14:22:05.514Z,11.32
2023-02-22T14:24:43.045Z,12.75
2023-02-22T14:27:10.538Z,10.75
2023-02-22T14:29:37.336Z,6.88
2023-02-22T14:32:06.784Z,12.73
2023-02-22T14:34:49.874Z,10.95
2023-02-22T14:37:20.850Z,11.20
2023-02-22T14:39:51.318Z,12.23
2023-02-22T14:42:21.873Z,12.70
2023-02-22T14:44:57.796Z,16.92
2023-02-22T14:47:28.281Z,11.05
2023-02-22T14:49:59.686Z,11.73
2023-02-22T14:52:30.453Z,12.07
2023-02-22T14:55:06.234Z,12.10
2023-02-22T14:57:46.216Z,11.02
2023-02-22T15:00:16.445Z,10.05
2023-02-22T15:02:42.825Z,11.32
2023-02-22T15:05:13.428Z,9.50
2023-02-22T15:07:50.432Z,12.02
2023-02-22T15:10:21.922Z,10.20
2023-02-22T15:12:53.402Z,9.80
2023-02-22T15:15:22.795Z,14.23
2023-02-22T15:17:54.241Z,12.35
2023-02-22T15:20:21.938Z,20.27
2023-02-22T15:22:49.669Z,12.77
2023-02-22T15:25:23.239Z,10.80
2023-02-22T15:27:49.752Z,12.95
2023-02-22T15:30:21.092Z,11.80
2023-02-22T15:33:03.084Z,14.70
2023-02-22T15:35:32.310Z,10.38
2023-02-22T15:38:02.284Z,11.95
2023-02-22T15:40:29.237Z,13.45
2023-02-22T15:42:55.626Z,10.60
2023-02-22T15:45:23.493Z,12.32
2023-02-22T15:47:49.963Z,13.02
2023-02-22T15:50:20.606Z,14.55
2023-02-22T15:52:48.950Z,18.38
2023-02-22T15:55:17.385Z,11.13
2023-02-22T15:57:43.969Z,11.35
2023-02-22T16:00:20.276Z,10.93
2023-02-22T16:02:47.756Z,9.20
2023-02-22T16:05:15.381Z,14.77
2023-02-22T16:07:44.115Z,10.90
2023-02-22T16:10:21.141Z,13.07
2023-02-22T16:12:47.544Z,12.48
2023-02-22T16:15:19.105Z,12.82
2023-02-22T16:17:59.998Z,11.40
2023-02-22T16:20:33.659Z,12.17
2023-02-22T16:23:00.260Z,11.55
2023-02-22T16:25:33.108Z,14.68
2023-02-22T16:28:01.908Z,14.67
2023-02-22T16:30:30.193Z,12.73
2023-02-22T16:32:57.051Z,11.75
2023-02-22T16:35:25.155Z,15.48
2023-02-22T16:37:54.776Z,15.20
2023-02-22T16:40:23.274Z,14.63
2023-02-22T16:42:51.030Z,15.45
2023-02-22T16:45:20.993Z,14.18
2023-02-22T16:47:47.837Z,14.00
2023-02-22T16:50:14.643Z,15.30
2023-02-22T16:52:41.487Z,15.05
2023-02-22T16:55:09.900Z,15.38
2023-02-22T16:57:39.107Z,14.90
2023-02-22T17:00:10.977Z,16.05
2023-02-22T17:02:37.336Z,13.77
2023-02-22T17:05:03.842Z,15.02
2023-02-22T17:07:31.044Z,14.68
2023-02-22T17:09:57.885Z,12.65
2023-02-22T17:12:24.951Z,16.15
2023-02-22T17:14:51.421Z,15.75
2023-02-22T17:17:19.128Z,15.45
2023-02-22T17:19:45.531Z,16.00
2023-02-22T17:22:17.453Z,17.20
2023-02-22T17:24:43.815Z,13.15
2023-02-22T17:27:10.204Z,16.42
2023-02-22T17:29:36.636Z,14.70
2023-02-22T17:32:03.527Z,14.82
2023-02-22T17:34:31.236Z,16.15
2023-02-22T17:36:57.610Z,14.70
2023-02-22T17:39:23.984Z,14.93
2023-02-22T17:41:50.366Z,15.70
2023-02-22T17:44:16.902Z,16.77
2023-02-22T17:46:43.412Z,16.83
2023-02-22T17:49:09.904Z,17.25
2023-02-22T17:51:39.902Z,18.15
2023-02-22T17:54:06.279Z,15.02
2023-02-22T17:56:32.737Z,15.10
2023-02-22T17:58:59.350Z,16.70
2023-02-22T18:01:28.174Z,15.90
2023-02-22T18:03:56.881Z,15.13
2023-02-22T18:06:25.566Z,18.98
2023-02-22T18:08:56.196Z,18.10
2023-02-22T18:11:23.726Z,16.65
2023-02-22T18:13:50.142Z,17.95
2023-02-22T18:16:16.807Z,18.42
2023-02-22T18:18:43.364Z,21.08
2023-02-22T18:21:10.000Z,18.20
2023-02-22T18:23:36.410Z,18.23
2023-02-22T18:26:11.147Z,18.02
2023-02-22T18:28:38.744Z,16.25
2023-02-22T18:31:06.942Z,18.58
2023-02-22T18:33:38.568Z,20.90
2023-02-22T18:36:05.885Z,19.33
2023-02-22T18:38:32.413Z,19.55
2023-02-22T18:41:00.737Z,16.15
2023-02-22T18:43:29.177Z,16.92
2023-02-22T18:46:05.172Z,21.92
2023-02-22T18:48:31.598Z,23.73
2023-02-22T18:50:59.450Z,21.05
2023-02-22T18:53:25.839Z,24.13
2023-02-22T18:55:52.217Z,20.58
2023-02-22T18:58:18.603Z,23.40
2023-02-22T19:00:48.301Z,21.10
2023-02-22T19:03:14.756Z,18.25
2023-02-22T19:05:41.129Z,22.73
2023-02-22T19:08:07.503Z,21.40
2023-02-22T19:10:33.881Z,24.10
2023-02-22T19:13:00.256Z,22.40
2023-02-22T19:15:27.123Z,25.60
2023-02-22T19:17:54.813Z,21.73
2023-02-22T19:20:21.178Z,25.92
2023-02-22T19:22:47.599Z,25.33
2023-02-22T19:25:14.089Z,22.80
2023-02-22T19:27:40.465Z,20.23
2023-02-22T19:30:08.511Z,24.38
2023-02-22T19:32:34.990Z,22.85
2023-02-22T19:35:02.798Z,22.08
2023-02-22T19:37:29.721Z,21.98
2023-02-22T19:39:56.078Z,24.90
2023-02-22T19:42:22.759Z,23.98
2023-02-22T19:44:49.149Z,23.55
2023-02-22T19:47:15.497Z,26.50
2023-02-22T19:49:41.888Z,24.42
2023-02-22T19:52:09.624Z,25.42
2023-02-22T19:54:35.997Z,24.20
2023-02-22T19:57:02.374Z,23.95
2023-02-22T19:59:28.951Z,25.42
2023-02-22T20:01:56.165Z,26.90
2023-02-22T20:04:23.473Z,26.73
2023-02-22T20:06:52.050Z,27.30
2023-02-22T20:09:22.015Z,25.25
2023-02-22T20:11:49.120Z,23.17
2023-02-22T20:14:17.461Z,24.10
2023-02-22T20:16:44.051Z,22.83
2023-02-22T20:19:10.468Z,25.10
2023-02-22T20:21:37.021Z,26.98
2023-02-22T20:24:05.459Z,30.45
2023-02-22T20:26:35.312Z,26.05
2023-02-22T20:29:02.482Z,22.92
2023-02-22T20:31:28.840Z,26.60
2023-02-22T20:33:57.455Z,25.15
2023-02-22T20:36:24.672Z,29.48
2023-02-22T20:38:52.045Z,25.02
2023-02-22T20:41:22.305Z,22.00
2023-02-22T20:43:50.860Z,24.15
2023-02-22T20:46:17.869Z,26.20
2023-02-22T20:48:44.397Z,32.88
2023-02-22T20:51:12.972Z,30.48
2023-02-22T20:53:40.457Z,31.02
2023-02-22T20:56:07.428Z,28.40
2023-02-22T20:58:33.895Z,21.27
2023-02-22T21:01:05.107Z,25.23
2023-02-22T21:03:32.434Z,23.70
2023-02-22T21:05:58.985Z,29.17
2023-02-22T21:08:25.390Z,23.85
2023-02-22T21:10:51.946Z,28.08
2023-02-22T21:13:18.505Z,28.60
2023-02-22T21:15:44.869Z,27.90
2023-02-22T21:18:13.696Z,31.38
2023-02-22T21:20:40.836Z,25.17
2023-02-22T21:23:07.348Z,32.22
2023-02-22T21:25:34.215Z,22.83
2023-02-22T21:28:01.176Z,24.05
2023-02-22T21:30:27.871Z,27.77
2023-02-22T21:32:54.880Z,26.92
2023-02-22T21:35:23.299Z,29.30
2023-02-22T21:37:50.668Z,30.10
2023-02-22T21:40:17.205Z,23.33
2023-02-22T21:42:43.600Z,25.45
2023-02-22T21:45:10.791Z,26.38
2023-02-22T21:47:37.153Z,24.98
2023-02-22T21:50:03.754Z,29.48
2023-02-22T21:52:31.425Z,25.88
2023-02-22T21:54:57.782Z,31.58
2023-02-22T21:57:24.318Z,24.70
2023-02-22T21:59:50.826Z,24.48
2023-02-22T22:02:17.292Z,27.35
2023-02-22T22:04:43.695Z,26.63
2023-02-22T22:07:10.069Z,29.13
2023-02-22T22:09:37.735Z,27.73
2023-02-22T22:12:04.805Z,29.42
2023-02-22T22:14:32.166Z,26.08
2023-02-22T22:16:59.338Z,27.90
2023-02-22T22:19:26.270Z,28.73
2023-02-22T22:21:52.664Z,26.38
2023-02-22T22:24:20.419Z,28.15
2023-02-22T22:26:48.349Z,26.92
2023-02-22T22:29:14.744Z,27.60
2023-02-22T22:31:41.250Z,27.73
2023-02-22T22:34:07.872Z,33.63
2023-02-22T22:36:34.238Z,32.65
2023-02-22T22:39:00.660Z,35.00
2023-02-22T22:41:27.030Z,34.97
2023-02-22T22:43:54.998Z,34.15
2023-02-22T22:46:21.485Z,30.02
2023-02-22T22:48:48.057Z,33.50
2023-02-22T22:51:16.897Z,31.30
2023-02-22T22:53:44.605Z,34.03
2023-02-22T22:56:12.897Z,32.85
2023-02-22T22:58:40.428Z,28.92
2023-02-22T23:01:08.706Z,33.25
2023-02-22T23:03:35.805Z,41.70
2023-02-22T23:06:05.469Z,32.95
2023-02-22T23:08:32.409Z,29.92
2023-02-22T23:10:58.838Z,31.88
2023-02-22T23:13:25.243Z,33.35
2023-02-22T23:15:51.626Z,27.63
2023-02-22T23:18:19.347Z,27.88
2023-02-22T23:20:45.840Z,30.00
2023-02-22T23:23:12.184Z,26.73
2023-02-22T23:25:38.629Z,29.67
2023-02-22T23:28:05.178Z,34.55
2023-02-22T23:30:31.521Z,29.88
2023-02-22T23:32:57.937Z,27.58
2023-02-22T23:35:25.760Z,27.80
2023-02-22T23:37:52.173Z,31.83
2023-02-22T23:40:19.011Z,24.70
2023-02-22T23:42:48.526Z,30.30
2023-02-22T23:45:15.563Z,31.13
2023-02-22T23:47:41.928Z,28.83
2023-02-22T23:50:09.578Z,30.88
2023-02-22T23:52:37.276Z,30.23
2023-02-22T23:55:04.350Z,29.98
2023-02-22T23:57:30.729Z,26.05
2023-02-22T23:59:57.081Z,31.95
